sensor_id;sensor_type;location;lat;lon;timestamp;temperature;humidity
4356;DHT22;64374;51.482;7.408;2024-02-26T00:00:12;14.30;99.90
4356;DHT22;64374;51.482;7.408;2024-02-26T00:02:41;14.50;99.90
4356;DHT22;64374;51.482;7.408;2024-02-26T00:05:09;14.60;99.90
4356;DHT22;64374;51.482;7.408;2024-02-26T00:07:38;14.60;99.90
4356;DHT22;64374;51.482;7.408;2024-02-26T00:10:12;14.70;99.90
4356;DHT22;64374;51.482;7.408;2024-02-26T00:12:40;14.60;99.90
4356;DHT22;64374;51.482;7.408;2024-02-26T00:15:09;14.50;99.90
4356;DHT22;64374;51.482;7.408;2024-02-26T00:17:38;14.20;99.90
4356;DHT22;64374;51.482;7.408;2024-02-26T00:20:07;14.40;99.90
4356;DHT22;64374;51.482;7.408;2024-02-26T00:22:36;14.50;99.90
4356;DHT22;64374;51.482;7.408;2024-02-26T00:25:05;14.60;99.90
4356;DHT22;64374;51.482;7.408;2024-02-26T00:27:42;14.60;99.90
4356;DHT22;64374;51.482;7.408;2024-02-26T00:30:11;14.70;99.90
4356;DHT22;64374;51.482;7.408;2024-02-26T00:32:39;14.60;99.90
4356;DHT22;64374;51.482;7.408;2024-02-26T00:35:10;14.30;99.90
4356;DHT22;64374;51.482;7.408;2024-02-26T00:37:38;14.50;99.90
4356;DHT22;64374;51.482;7.408;2024-02-26T00:40:10;14.60;99.90
4356;DHT22;64374;51.482;7.408;2024-02-26T00:42:38;14.50;99.90
4356;DHT22;64374;51.482;7.408;2024-02-26T00:45:16;14.30;99.90
4356;DHT22;64374;51.482;7.408;2024-02-26T00:47:44;14.50;99.90
4356;DHT22;64374;51.482;7.408;2024-02-26T00:50:16;14.50;99.90
4356;DHT22;64374;51.482;7.408;2024-02-26T00:52:44;14.60;99.90
4356;DHT22;64374;51.482;7.408;2024-02-26T00:55:12;14.60;99.90
4356;DHT22;64374;51.482;7.408;2024-02-26T00:57:41;14.70;99.90
4356;DHT22;64374;51.482;7.408;2024-02-26T01:00:14;14.70;99.90
4356;DHT22;64374;51.482;7.408;2024-02-26T01:02:44;14.60;99.90
4356;DHT22;64374;51.482;7.408;2024-02-26T01:05:17;14.30;99.90
4356;DHT22;64374;51.482;7.408;2024-02-26T01:07:47;14.10;99.90
4356;DHT22;64374;51.482;7.408;2024-02-26T01:10:16;14.00;99.90
4356;DHT22;64374;51.482;7.408;2024-02-26T01:12:46;14.20;99.90
4356;DHT22;64374;51.482;7.408;2024-02-26T01:15:17;13.90;99.90
4356;DHT22;64374;51.482;7.408;2024-02-26T01:17:49;14.10;99.90
4356;DHT22;64374;51.482;7.408;2024-02-26T01:20:18;13.90;99.90
4356;DHT22;64374;51.482;7.408;2024-02-26T01:22:48;14.10;99.90
4356;DHT22;64374;51.482;7.408;2024-02-26T01:25:17;14.40;99.90
4356;DHT22;64374;51.482;7.408;2024-02-26T01:27:45;13.90;99.90
4356;DHT22;64374;51.482;7.408;2024-02-26T01:30:18;13.50;99.90
4356;DHT22;64374;51.482;7.408;2024-02-26T01:32:47;13.20;99.90
4356;DHT22;64374;51.482;7.408;2024-02-26T01:35:16;13.40;99.90
4356;DHT22;64374;51.482;7.408;2024-02-26T01:37:47;13.60;99.90
4356;DHT22;64374;51.482;7.408;2024-02-26T01:40:15;13.60;99.90
4356;DHT22;64374;51.482;7.408;2024-02-26T01:42:46;14.00;99.90
4356;DHT22;64374;51.482;7.408;2024-02-26T01:45:18;14.00;99.90
4356;DHT22;64374;51.482;7.408;2024-02-26T01:47:51;14.20;99.90
4356;DHT22;64374;51.482;7.408;2024-02-26T01:50:20;14.40;99.90
4356;DHT22;64374;51.482;7.408;2024-02-26T01:52:50;13.80;99.90
4356;DHT22;64374;51.482;7.408;2024-02-26T01:55:23;13.90;99.90
4356;DHT22;64374;51.482;7.408;2024-02-26T01:57:54;14.20;99.90
4356;DHT22;64374;51.482;7.408;2024-02-26T02:00:26;14.30;99.90
4356;DHT22;64374;51.482;7.408;2024-02-26T02:02:55;14.30;99.90
4356;DHT22;64374;51.482;7.408;2024-02-26T02:05:26;14.10;99.90
4356;DHT22;64374;51.482;7.408;2024-02-26T02:07:54;14.10;99.90
4356;DHT22;64374;51.482;7.408;2024-02-26T02:10:23;14.00;99.90
4356;DHT22;64374;51.482;7.408;2024-02-26T02:12:52;13.90;99.90
4356;DHT22;64374;51.482;7.408;2024-02-26T02:15:21;13.80;99.90
4356;DHT22;64374;51.482;7.408;2024-02-26T02:17:53;13.50;99.90
4356;DHT22;64374;51.482;7.408;2024-02-26T02:20:26;13.80;99.90
4356;DHT22;64374;51.482;7.408;2024-02-26T02:23:00;13.90;99.90
4356;DHT22;64374;51.482;7.408;2024-02-26T02:25:28;14.20;99.90
4356;DHT22;64374;51.482;7.408;2024-02-26T02:27:56;14.30;99.90
4356;DHT22;64374;51.482;7.408;2024-02-26T02:30:29;14.20;99.90
4356;DHT22;64374;51.482;7.408;2024-02-26T02:32:58;14.20;99.90
4356;DHT22;64374;51.482;7.408;2024-02-26T02:35:28;14.20;99.90
4356;DHT22;64374;51.482;7.408;2024-02-26T02:37:57;14.30;99.90
4356;DHT22;64374;51.482;7.408;2024-02-26T02:40:25;14.30;99.90
4356;DHT22;64374;51.482;7.408;2024-02-26T02:42:53;14.10;99.90
4356;DHT22;64374;51.482;7.408;2024-02-26T02:45:21;14.30;99.90
4356;DHT22;64374;51.482;7.408;2024-02-26T02:47:50;13.90;99.90
4356;DHT22;64374;51.482;7.408;2024-02-26T02:50:18;13.70;99.90
4356;DHT22;64374;51.482;7.408;2024-02-26T02:52:50;13.90;99.90
4356;DHT22;64374;51.482;7.408;2024-02-26T02:55:18;14.20;99.90
4356;DHT22;64374;51.482;7.408;2024-02-26T02:57:46;14.20;99.90
4356;DHT22;64374;51.482;7.408;2024-02-26T03:00:19;14.10;99.90
4356;DHT22;64374;51.482;7.408;2024-02-26T03:02:50;14.20;99.90
4356;DHT22;64374;51.482;7.408;2024-02-26T03:05:19;14.20;99.90
4356;DHT22;64374;51.482;7.408;2024-02-26T03:07:47;14.30;99.90
4356;DHT22;64374;51.482;7.408;2024-02-26T03:10:19;14.40;99.90
4356;DHT22;64374;51.482;7.408;2024-02-26T03:12:47;14.40;99.90
4356;DHT22;64374;51.482;7.408;2024-02-26T03:15:16;13.90;99.90
4356;DHT22;64374;51.482;7.408;2024-02-26T03:17:44;13.70;99.90
4356;DHT22;64374;51.482;7.408;2024-02-26T03:20:12;13.90;99.90
4356;DHT22;64374;51.482;7.408;2024-02-26T03:22:49;13.70;99.90
4356;DHT22;64374;51.482;7.408;2024-02-26T03:25:19;13.90;99.90
4356;DHT22;64374;51.482;7.408;2024-02-26T03:27:47;13.70;99.90
4356;DHT22;64374;51.482;7.408;2024-02-26T03:30:15;13.60;99.90
4356;DHT22;64374;51.482;7.408;2024-02-26T03:32:43;12.90;99.90
4356;DHT22;64374;51.482;7.408;2024-02-26T03:35:13;12.90;99.90
4356;DHT22;64374;51.482;7.408;2024-02-26T03:37:41;13.10;99.90
4356;DHT22;64374;51.482;7.408;2024-02-26T03:40:11;13.40;99.90
4356;DHT22;64374;51.482;7.408;2024-02-26T03:42:43;13.30;99.90
4356;DHT22;64374;51.482;7.408;2024-02-26T03:45:11;13.20;99.90
4356;DHT22;64374;51.482;7.408;2024-02-26T03:47:39;12.70;99.90
4356;DHT22;64374;51.482;7.408;2024-02-26T03:50:09;12.60;99.90
4356;DHT22;64374;51.482;7.408;2024-02-26T03:52:39;12.40;99.90
4356;DHT22;64374;51.482;7.408;2024-02-26T03:55:12;12.70;99.90
4356;DHT22;64374;51.482;7.408;2024-02-26T03:57:40;12.50;99.90
4356;DHT22;64374;51.482;7.408;2024-02-26T04:00:11;12.30;99.90
4356;DHT22;64374;51.482;7.408;2024-02-26T04:02:39;11.70;99.90
4356;DHT22;64374;51.482;7.408;2024-02-26T04:05:09;11.70;99.90
4356;DHT22;64374;51.482;7.408;2024-02-26T04:07:39;11.60;99.90
4356;DHT22;64374;51.482;7.408;2024-02-26T04:10:12;11.20;99.90
4356;DHT22;64374;51.482;7.408;2024-02-26T04:12:42;11.60;99.90
4356;DHT22;64374;51.482;7.408;2024-02-26T04:15:12;11.40;99.90
4356;DHT22;64374;51.482;7.408;2024-02-26T04:17:41;10.80;99.90
4356;DHT22;64374;51.482;7.408;2024-02-26T04:20:13;10.10;99.90
4356;DHT22;64374;51.482;7.408;2024-02-26T04:22:42;9.50;99.90
4356;DHT22;64374;51.482;7.408;2024-02-26T04:25:11;9.60;99.90
4356;DHT22;64374;51.482;7.408;2024-02-26T04:27:40;9.70;99.90
4356;DHT22;64374;51.482;7.408;2024-02-26T04:30:16;9.80;99.90
4356;DHT22;64374;51.482;7.408;2024-02-26T04:32:45;10.10;99.90
4356;DHT22;64374;51.482;7.408;2024-02-26T04:35:13;9.80;99.90
4356;DHT22;64374;51.482;7.408;2024-02-26T04:37:41;10.40;99.90
4356;DHT22;64374;51.482;7.408;2024-02-26T04:40:10;10.90;99.90
4356;DHT22;64374;51.482;7.408;2024-02-26T04:42:38;10.80;99.90
4356;DHT22;64374;51.482;7.408;2024-02-26T04:45:09;11.70;99.90
4356;DHT22;64374;51.482;7.408;2024-02-26T04:47:38;12.20;99.90
4356;DHT22;64374;51.482;7.408;2024-02-26T04:50:07;12.40;99.90
4356;DHT22;64374;51.482;7.408;2024-02-26T04:52:36;12.70;99.90
4356;DHT22;64374;51.482;7.408;2024-02-26T04:55:05;12.80;99.90
4356;DHT22;64374;51.482;7.408;2024-02-26T04:57:33;13.10;99.90
4356;DHT22;64374;51.482;7.408;2024-02-26T05:00:02;12.90;99.90
4356;DHT22;64374;51.482;7.408;2024-02-26T05:02:32;13.00;99.90
4356;DHT22;64374;51.482;7.408;2024-02-26T05:05:06;12.80;99.90
4356;DHT22;64374;51.482;7.408;2024-02-26T05:07:39;12.60;99.90
4356;DHT22;64374;51.482;7.408;2024-02-26T05:10:09;12.70;99.90
4356;DHT22;64374;51.482;7.408;2024-02-26T05:12:37;12.20;99.90
4356;DHT22;64374;51.482;7.408;2024-02-26T05:15:10;12.50;99.90
4356;DHT22;64374;51.482;7.408;2024-02-26T05:17:40;12.70;99.90
4356;DHT22;64374;51.482;7.408;2024-02-26T05:20:10;12.90;99.90
4356;DHT22;64374;51.482;7.408;2024-02-26T05:22:38;13.20;99.90
4356;DHT22;64374;51.482;7.408;2024-02-26T05:25:07;13.40;99.90
4356;DHT22;64374;51.482;7.408;2024-02-26T05:27:35;13.50;99.90
4356;DHT22;64374;51.482;7.408;2024-02-26T05:30:04;13.40;99.90
4356;DHT22;64374;51.482;7.408;2024-02-26T05:32:33;13.20;99.90
4356;DHT22;64374;51.482;7.408;2024-02-26T05:35:01;13.30;99.90
4356;DHT22;64374;51.482;7.408;2024-02-26T05:37:32;13.40;99.90
4356;DHT22;64374;51.482;7.408;2024-02-26T05:40:04;13.20;99.90
4356;DHT22;64374;51.482;7.408;2024-02-26T05:42:32;13.40;99.90
4356;DHT22;64374;51.482;7.408;2024-02-26T05:45:00;13.60;99.90
4356;DHT22;64374;51.482;7.408;2024-02-26T05:47:33;13.50;99.90
4356;DHT22;64374;51.482;7.408;2024-02-26T05:50:02;13.50;99.90
4356;DHT22;64374;51.482;7.408;2024-02-26T05:52:35;12.90;99.90
4356;DHT22;64374;51.482;7.408;2024-02-26T05:55:04;11.90;99.90
4356;DHT22;64374;51.482;7.408;2024-02-26T05:57:33;11.90;99.90
4356;DHT22;64374;51.482;7.408;2024-02-26T06:00:02;11.80;99.90
4356;DHT22;64374;51.482;7.408;2024-02-26T06:02:43;12.50;99.90
4356;DHT22;64374;51.482;7.408;2024-02-26T06:05:13;12.50;99.90
4356;DHT22;64374;51.482;7.408;2024-02-26T06:07:44;12.40;99.90
4356;DHT22;64374;51.482;7.408;2024-02-26T06:10:12;12.40;99.90
4356;DHT22;64374;51.482;7.408;2024-02-26T06:12:41;12.10;99.90
4356;DHT22;64374;51.482;7.408;2024-02-26T06:15:11;11.80;99.90
4356;DHT22;64374;51.482;7.408;2024-02-26T06:17:40;11.60;99.90
4356;DHT22;64374;51.482;7.408;2024-02-26T06:20:09;12.10;99.90
4356;DHT22;64374;51.482;7.408;2024-02-26T06:22:40;12.30;99.90
4356;DHT22;64374;51.482;7.408;2024-02-26T06:25:10;12.20;99.90
4356;DHT22;64374;51.482;7.408;2024-02-26T06:27:38;12.20;99.90
4356;DHT22;64374;51.482;7.408;2024-02-26T06:30:10;11.60;99.90
4356;DHT22;64374;51.482;7.408;2024-02-26T06:32:39;10.80;99.90
4356;DHT22;64374;51.482;7.408;2024-02-26T06:35:09;10.90;99.90
4356;DHT22;64374;51.482;7.408;2024-02-26T06:37:38;11.30;99.90
4356;DHT22;64374;51.482;7.408;2024-02-26T06:40:07;11.30;99.90
4356;DHT22;64374;51.482;7.408;2024-02-26T06:42:38;11.70;99.90
4356;DHT22;64374;51.482;7.408;2024-02-26T06:45:08;11.60;99.90
4356;DHT22;64374;51.482;7.408;2024-02-26T06:47:37;12.10;99.90
4356;DHT22;64374;51.482;7.408;2024-02-26T06:50:06;11.50;99.90
4356;DHT22;64374;51.482;7.408;2024-02-26T06:52:35;11.90;99.90
4356;DHT22;64374;51.482;7.408;2024-02-26T06:55:03;11.90;99.90
4356;DHT22;64374;51.482;7.408;2024-02-26T06:57:35;12.00;99.90
4356;DHT22;64374;51.482;7.408;2024-02-26T07:00:05;12.10;99.90
4356;DHT22;64374;51.482;7.408;2024-02-26T07:02:34;12.30;99.90
4356;DHT22;64374;51.482;7.408;2024-02-26T07:05:06;12.30;99.90
4356;DHT22;64374;51.482;7.408;2024-02-26T07:07:37;12.60;99.90
4356;DHT22;64374;51.482;7.408;2024-02-26T07:10:08;12.80;99.90
4356;DHT22;64374;51.482;7.408;2024-02-26T07:12:36;12.60;99.90
4356;DHT22;64374;51.482;7.408;2024-02-26T07:15:08;12.80;99.90
4356;DHT22;64374;51.482;7.408;2024-02-26T07:17:37;12.90;99.90
4356;DHT22;64374;51.482;7.408;2024-02-26T07:20:09;12.70;99.90
4356;DHT22;64374;51.482;7.408;2024-02-26T07:22:38;13.00;99.90
4356;DHT22;64374;51.482;7.408;2024-02-26T07:25:06;13.30;99.90
4356;DHT22;64374;51.482;7.408;2024-02-26T07:27:35;13.30;99.90
4356;DHT22;64374;51.482;7.408;2024-02-26T07:30:04;13.50;99.90
4356;DHT22;64374;51.482;7.408;2024-02-26T07:32:34;13.00;99.90
4356;DHT22;64374;51.482;7.408;2024-02-26T07:35:03;12.20;99.90
4356;DHT22;64374;51.482;7.408;2024-02-26T07:37:32;12.40;99.90
4356;DHT22;64374;51.482;7.408;2024-02-26T07:40:03;12.80;99.90
4356;DHT22;64374;51.482;7.408;2024-02-26T07:42:37;13.00;99.90
4356;DHT22;64374;51.482;7.408;2024-02-26T07:45:06;13.30;99.90
4356;DHT22;64374;51.482;7.408;2024-02-26T07:47:41;13.40;99.90
4356;DHT22;64374;51.482;7.408;2024-02-26T07:50:10;13.00;99.90
4356;DHT22;64374;51.482;7.408;2024-02-26T07:52:39;13.00;99.90
4356;DHT22;64374;51.482;7.408;2024-02-26T07:55:08;12.70;99.90
4356;DHT22;64374;51.482;7.408;2024-02-26T07:57:42;12.90;99.90
4356;DHT22;64374;51.482;7.408;2024-02-26T08:00:11;12.80;99.90
4356;DHT22;64374;51.482;7.408;2024-02-26T08:02:47;13.20;99.90
4356;DHT22;64374;51.482;7.408;2024-02-26T08:05:15;13.40;99.90
4356;DHT22;64374;51.482;7.408;2024-02-26T08:07:43;13.50;99.90
4356;DHT22;64374;51.482;7.408;2024-02-26T08:10:15;13.60;99.90
4356;DHT22;64374;51.482;7.408;2024-02-26T08:12:43;13.70;99.90
4356;DHT22;64374;51.482;7.408;2024-02-26T08:15:12;13.70;99.90
4356;DHT22;64374;51.482;7.408;2024-02-26T08:17:44;13.80;99.90
4356;DHT22;64374;51.482;7.408;2024-02-26T08:20:14;14.00;99.90
4356;DHT22;64374;51.482;7.408;2024-02-26T08:22:45;14.00;99.90
4356;DHT22;64374;51.482;7.408;2024-02-26T08:25:14;13.70;99.90
4356;DHT22;64374;51.482;7.408;2024-02-26T08:27:42;13.90;99.90
4356;DHT22;64374;51.482;7.408;2024-02-26T08:30:12;13.70;99.90
4356;DHT22;64374;51.482;7.408;2024-02-26T08:32:40;12.80;99.90
4356;DHT22;64374;51.482;7.408;2024-02-26T08:35:10;13.20;99.90
4356;DHT22;64374;51.482;7.408;2024-02-26T08:37:39;13.30;99.90
4356;DHT22;64374;51.482;7.408;2024-02-26T08:40:08;13.50;99.90
4356;DHT22;64374;51.482;7.408;2024-02-26T08:42:38;13.80;99.90
4356;DHT22;64374;51.482;7.408;2024-02-26T08:45:07;13.60;99.90
4356;DHT22;64374;51.482;7.408;2024-02-26T08:47:35;13.20;99.90
4356;DHT22;64374;51.482;7.408;2024-02-26T08:50:04;12.90;99.90
4356;DHT22;64374;51.482;7.408;2024-02-26T08:52:34;13.10;99.90
4356;DHT22;64374;51.482;7.408;2024-02-26T08:55:05;12.90;99.90
4356;DHT22;64374;51.482;7.408;2024-02-26T08:57:36;12.70;99.90
4356;DHT22;64374;51.482;7.408;2024-02-26T09:00:06;12.60;99.90
4356;DHT22;64374;51.482;7.408;2024-02-26T09:02:38;12.40;99.90
4356;DHT22;64374;51.482;7.408;2024-02-26T09:05:07;12.00;99.90
4356;DHT22;64374;51.482;7.408;2024-02-26T09:07:36;11.90;99.90
4356;DHT22;64374;51.482;7.408;2024-02-26T09:10:05;11.50;99.90
4356;DHT22;64374;51.482;7.408;2024-02-26T09:12:36;11.70;99.90
4356;DHT22;64374;51.482;7.408;2024-02-26T09:15:05;12.30;99.90
4356;DHT22;64374;51.482;7.408;2024-02-26T09:17:34;12.00;99.90
4356;DHT22;64374;51.482;7.408;2024-02-26T09:20:03;12.20;99.90
4356;DHT22;64374;51.482;7.408;2024-02-26T09:22:32;12.50;99.90
4356;DHT22;64374;51.482;7.408;2024-02-26T09:25:03;12.70;99.90
4356;DHT22;64374;51.482;7.408;2024-02-26T09:27:32;12.70;99.90
4356;DHT22;64374;51.482;7.408;2024-02-26T09:30:00;12.40;99.90
4356;DHT22;64374;51.482;7.408;2024-02-26T09:32:28;12.50;99.90
4356;DHT22;64374;51.482;7.408;2024-02-26T09:34:59;12.50;99.90
4356;DHT22;64374;51.482;7.408;2024-02-26T09:37:27;12.50;99.90
4356;DHT22;64374;51.482;7.408;2024-02-26T09:39:55;12.50;99.90
4356;DHT22;64374;51.482;7.408;2024-02-26T09:42:26;11.50;99.90
4356;DHT22;64374;51.482;7.408;2024-02-26T09:44:55;11.40;99.90
4356;DHT22;64374;51.482;7.408;2024-02-26T09:47:23;12.00;99.90
4356;DHT22;64374;51.482;7.408;2024-02-26T09:49:56;12.40;99.90
4356;DHT22;64374;51.482;7.408;2024-02-26T09:52:25;11.90;99.90
4356;DHT22;64374;51.482;7.408;2024-02-26T09:54:56;11.80;99.90
4356;DHT22;64374;51.482;7.408;2024-02-26T09:57:25;10.90;99.90
4356;DHT22;64374;51.482;7.408;2024-02-26T09:59:55;11.60;99.90
4356;DHT22;64374;51.482;7.408;2024-02-26T10:02:28;11.90;99.90
4356;DHT22;64374;51.482;7.408;2024-02-26T10:04:57;11.60;99.90
4356;DHT22;64374;51.482;7.408;2024-02-26T10:07:28;11.50;99.90
4356;DHT22;64374;51.482;7.408;2024-02-26T10:09:57;11.90;99.90
4356;DHT22;64374;51.482;7.408;2024-02-26T10:12:28;12.10;99.90
4356;DHT22;64374;51.482;7.408;2024-02-26T10:14:58;12.70;99.90
4356;DHT22;64374;51.482;7.408;2024-02-26T10:17:26;12.90;99.90
4356;DHT22;64374;51.482;7.408;2024-02-26T10:19:55;13.00;99.90
4356;DHT22;64374;51.482;7.408;2024-02-26T10:22:38;12.40;99.90
4356;DHT22;64374;51.482;7.408;2024-02-26T10:25:06;12.90;99.90
4356;DHT22;64374;51.482;7.408;2024-02-26T10:27:36;12.80;99.90
4356;DHT22;64374;51.482;7.408;2024-02-26T10:30:12;12.80;99.90
4356;DHT22;64374;51.482;7.408;2024-02-26T10:32:46;13.40;99.90
4356;DHT22;64374;51.482;7.408;2024-02-26T10:35:15;13.50;99.90
4356;DHT22;64374;51.482;7.408;2024-02-26T10:37:44;14.00;99.90
4356;DHT22;64374;51.482;7.408;2024-02-26T10:40:13;13.90;99.90
4356;DHT22;64374;51.482;7.408;2024-02-26T10:42:43;14.00;99.90
4356;DHT22;64374;51.482;7.408;2024-02-26T10:45:12;14.30;99.90
4356;DHT22;64374;51.482;7.408;2024-02-26T10:47:41;14.40;99.90
4356;DHT22;64374;51.482;7.408;2024-02-26T10:50:10;14.20;99.90
4356;DHT22;64374;51.482;7.408;2024-02-26T10:52:42;14.10;99.90
4356;DHT22;64374;51.482;7.408;2024-02-26T10:55:15;14.00;99.90
4356;DHT22;64374;51.482;7.408;2024-02-26T10:57:47;14.20;99.90
4356;DHT22;64374;51.482;7.408;2024-02-26T11:00:19;14.20;99.90
4356;DHT22;64374;51.482;7.408;2024-02-26T11:02:48;14.50;99.90
4356;DHT22;64374;51.482;7.408;2024-02-26T11:05:17;14.50;99.90
4356;DHT22;64374;51.482;7.408;2024-02-26T11:07:45;13.50;99.90
4356;DHT22;64374;51.482;7.408;2024-02-26T11:10:15;13.10;99.90
4356;DHT22;64374;51.482;7.408;2024-02-26T11:12:46;13.60;99.90
4356;DHT22;64374;51.482;7.408;2024-02-26T11:15:15;13.70;99.90
4356;DHT22;64374;51.482;7.408;2024-02-26T11:17:46;13.70;99.90
4356;DHT22;64374;51.482;7.408;2024-02-26T11:20:19;14.10;99.90
4356;DHT22;64374;51.482;7.408;2024-02-26T11:22:48;13.70;99.90
4356;DHT22;64374;51.482;7.408;2024-02-26T11:25:16;13.70;99.90
4356;DHT22;64374;51.482;7.408;2024-02-26T11:27:50;13.80;99.90
4356;DHT22;64374;51.482;7.408;2024-02-26T11:30:19;13.50;99.90
4356;DHT22;64374;51.482;7.408;2024-02-26T11:32:49;12.90;99.90
4356;DHT22;64374;51.482;7.408;2024-02-26T11:35:20;13.30;99.90
4356;DHT22;64374;51.482;7.408;2024-02-26T11:37:53;13.40;99.90
4356;DHT22;64374;51.482;7.408;2024-02-26T11:40:20;13.80;99.90
4356;DHT22;64374;51.482;7.408;2024-02-26T11:42:51;13.00;99.90
4356;DHT22;64374;51.482;7.408;2024-02-26T11:45:52;12.30;99.90
4356;DHT22;64374;51.482;7.408;2024-02-26T11:48:24;11.50;99.90
4356;DHT22;64374;51.482;7.408;2024-02-26T11:50:54;11.70;99.90
4356;DHT22;64374;51.482;7.408;2024-02-26T11:53:24;12.10;99.90
4356;DHT22;64374;51.482;7.408;2024-02-26T11:56:20;12.80;99.90
4356;DHT22;64374;51.482;7.408;2024-02-26T11:59:03;12.40;99.90
4356;DHT22;64374;51.482;7.408;2024-02-26T12:01:44;12.00;99.90
4356;DHT22;64374;51.482;7.408;2024-02-26T12:04:17;12.70;99.90
4356;DHT22;64374;51.482;7.408;2024-02-26T12:06:50;12.80;99.90
4356;DHT22;64374;51.482;7.408;2024-02-26T12:09:33;12.80;99.90
4356;DHT22;64374;51.482;7.408;2024-02-26T12:12:03;12.50;99.90
4356;DHT22;64374;51.482;7.408;2024-02-26T12:14:34;12.20;99.90
4356;DHT22;64374;51.482;7.408;2024-02-26T12:17:03;12.30;99.90
4356;DHT22;64374;51.482;7.408;2024-02-26T12:19:34;12.10;99.90
4356;DHT22;64374;51.482;7.408;2024-02-26T12:22:13;12.00;99.90
4356;DHT22;64374;51.482;7.408;2024-02-26T12:24:44;12.50;99.90
4356;DHT22;64374;51.482;7.408;2024-02-26T12:27:14;12.50;99.90
4356;DHT22;64374;51.482;7.408;2024-02-26T12:29:44;12.90;99.90
4356;DHT22;64374;51.482;7.408;2024-02-26T12:32:14;13.00;99.90
4356;DHT22;64374;51.482;7.408;2024-02-26T12:34:44;12.80;99.90
4356;DHT22;64374;51.482;7.408;2024-02-26T12:37:14;12.30;99.90
4356;DHT22;64374;51.482;7.408;2024-02-26T12:39:43;12.00;99.90
4356;DHT22;64374;51.482;7.408;2024-02-26T12:42:12;11.80;99.90
4356;DHT22;64374;51.482;7.408;2024-02-26T12:44:43;11.60;99.90
4356;DHT22;64374;51.482;7.408;2024-02-26T12:47:12;11.70;99.90
4356;DHT22;64374;51.482;7.408;2024-02-26T12:49:43;11.50;99.90
4356;DHT22;64374;51.482;7.408;2024-02-26T12:52:14;11.20;99.90
4356;DHT22;64374;51.482;7.408;2024-02-26T12:54:44;11.20;99.90
4356;DHT22;64374;51.482;7.408;2024-02-26T12:57:13;11.00;99.90
4356;DHT22;64374;51.482;7.408;2024-02-26T12:59:41;10.90;99.90
4356;DHT22;64374;51.482;7.408;2024-02-26T13:02:11;11.00;99.90
4356;DHT22;64374;51.482;7.408;2024-02-26T13:04:39;11.20;99.90
4356;DHT22;64374;51.482;7.408;2024-02-26T13:07:08;11.10;99.90
4356;DHT22;64374;51.482;7.408;2024-02-26T13:09:36;11.40;99.90
4356;DHT22;64374;51.482;7.408;2024-02-26T13:12:06;11.50;99.90
4356;DHT22;64374;51.482;7.408;2024-02-26T13:14:37;11.50;99.90
4356;DHT22;64374;51.482;7.408;2024-02-26T13:17:05;11.40;99.90
4356;DHT22;64374;51.482;7.408;2024-02-26T13:19:34;11.50;99.90
4356;DHT22;64374;51.482;7.408;2024-02-26T13:22:06;11.40;99.90
4356;DHT22;64374;51.482;7.408;2024-02-26T13:24:37;11.40;99.90
4356;DHT22;64374;51.482;7.408;2024-02-26T13:27:05;11.30;99.90
4356;DHT22;64374;51.482;7.408;2024-02-26T13:29:36;11.30;99.90
4356;DHT22;64374;51.482;7.408;2024-02-26T13:32:04;11.50;99.90
4356;DHT22;64374;51.482;7.408;2024-02-26T13:34:35;11.10;99.90
4356;DHT22;64374;51.482;7.408;2024-02-26T13:37:04;11.00;99.90
4356;DHT22;64374;51.482;7.408;2024-02-26T13:39:33;10.80;99.90
4356;DHT22;64374;51.482;7.408;2024-02-26T13:42:06;10.90;99.90
4356;DHT22;64374;51.482;7.408;2024-02-26T13:44:38;11.10;99.90
4356;DHT22;64374;51.482;7.408;2024-02-26T13:47:10;11.10;99.90
4356;DHT22;64374;51.482;7.408;2024-02-26T13:49:40;10.80;99.90
4356;DHT22;64374;51.482;7.408;2024-02-26T13:52:09;11.10;99.90
4356;DHT22;64374;51.482;7.408;2024-02-26T13:54:50;11.50;99.90
4356;DHT22;64374;51.482;7.408;2024-02-26T13:57:34;11.80;99.90
4356;DHT22;64374;51.482;7.408;2024-02-26T14:00:05;11.30;99.90
4356;DHT22;64374;51.482;7.408;2024-02-26T14:02:37;11.90;99.90
4356;DHT22;64374;51.482;7.408;2024-02-26T14:05:10;11.30;99.90
4356;DHT22;64374;51.482;7.408;2024-02-26T14:07:39;11.10;99.90
4356;DHT22;64374;51.482;7.408;2024-02-26T14:10:12;10.60;99.90
4356;DHT22;64374;51.482;7.408;2024-02-26T14:12:40;10.80;99.90
4356;DHT22;64374;51.482;7.408;2024-02-26T14:15:10;11.00;99.90
4356;DHT22;64374;51.482;7.408;2024-02-26T14:17:39;11.00;99.90
4356;DHT22;64374;51.482;7.408;2024-02-26T14:20:10;11.20;99.90
4356;DHT22;64374;51.482;7.408;2024-02-26T14:22:38;11.20;99.90
4356;DHT22;64374;51.482;7.408;2024-02-26T14:25:09;11.20;99.90
4356;DHT22;64374;51.482;7.408;2024-02-26T14:27:38;11.10;99.90
4356;DHT22;64374;51.482;7.408;2024-02-26T14:30:07;10.90;99.90
4356;DHT22;64374;51.482;7.408;2024-02-26T14:32:35;11.30;99.90
4356;DHT22;64374;51.482;7.408;2024-02-26T14:35:07;11.50;99.90
4356;DHT22;64374;51.482;7.408;2024-02-26T14:37:43;11.30;99.90
4356;DHT22;64374;51.482;7.408;2024-02-26T14:40:15;11.50;99.90
4356;DHT22;64374;51.482;7.408;2024-02-26T14:42:43;11.50;99.90
4356;DHT22;64374;51.482;7.408;2024-02-26T14:45:12;10.90;99.90
4356;DHT22;64374;51.482;7.408;2024-02-26T14:47:43;11.20;99.90
4356;DHT22;64374;51.482;7.408;2024-02-26T14:50:11;11.50;99.90
4356;DHT22;64374;51.482;7.408;2024-02-26T14:52:40;12.00;99.90
4356;DHT22;64374;51.482;7.408;2024-02-26T14:55:12;11.50;99.90
4356;DHT22;64374;51.482;7.408;2024-02-26T14:57:40;11.30;99.90
4356;DHT22;64374;51.482;7.408;2024-02-26T15:00:24;11.90;99.90
4356;DHT22;64374;51.482;7.408;2024-02-26T15:02:54;11.40;99.90
4356;DHT22;64374;51.482;7.408;2024-02-26T15:05:23;11.80;99.90
4356;DHT22;64374;51.482;7.408;2024-02-26T15:07:54;11.40;99.90
4356;DHT22;64374;51.482;7.408;2024-02-26T15:10:23;11.50;99.90
4356;DHT22;64374;51.482;7.408;2024-02-26T15:12:54;11.00;99.90
4356;DHT22;64374;51.482;7.408;2024-02-26T15:15:25;10.70;99.90
4356;DHT22;64374;51.482;7.408;2024-02-26T15:17:54;11.10;99.90
4356;DHT22;64374;51.482;7.408;2024-02-26T15:20:22;11.50;99.90
4356;DHT22;64374;51.482;7.408;2024-02-26T15:22:50;11.40;99.90
4356;DHT22;64374;51.482;7.408;2024-02-26T15:25:22;11.00;99.90
4356;DHT22;64374;51.482;7.408;2024-02-26T15:28:05;11.20;99.90
4356;DHT22;64374;51.482;7.408;2024-02-26T15:30:35;11.40;99.90
4356;DHT22;64374;51.482;7.408;2024-02-26T15:33:04;10.90;99.90
4356;DHT22;64374;51.482;7.408;2024-02-26T15:35:32;11.40;99.90
4356;DHT22;64374;51.482;7.408;2024-02-26T15:38:04;11.70;99.90
4356;DHT22;64374;51.482;7.408;2024-02-26T15:40:33;10.90;99.90
4356;DHT22;64374;51.482;7.408;2024-02-26T15:43:11;10.70;99.90
4356;DHT22;64374;51.482;7.408;2024-02-26T15:45:41;10.70;99.90
4356;DHT22;64374;51.482;7.408;2024-02-26T15:48:10;10.90;99.90
4356;DHT22;64374;51.482;7.408;2024-02-26T15:50:38;11.30;99.90
4356;DHT22;64374;51.482;7.408;2024-02-26T15:53:08;11.00;99.90
4356;DHT22;64374;51.482;7.408;2024-02-26T15:55:37;11.40;99.90
4356;DHT22;64374;51.482;7.408;2024-02-26T15:58:08;11.10;99.90
4356;DHT22;64374;51.482;7.408;2024-02-26T16:00:41;10.60;99.90
4356;DHT22;64374;51.482;7.408;2024-02-26T16:03:10;10.80;99.90
4356;DHT22;64374;51.482;7.408;2024-02-26T16:05:38;10.70;99.90